Floathaven Airstrip Airport

WA90 · Washington, États-Unis

METAR anciennes WA90 · Floathaven Airstrip Airport

Tu vois ci-dessous les METAR des derniers jours. Sélectionne une année pour parcourir les METAR plus anciens, à partir de l'année 2007.

13 juin 2024

Temps Code Temps Temp. Vue Base cloud Vent METAR/SPECI
21:53
V
14 °C 10 mi - 180° 180° 6 kt METAR KBLI 140453Z 18006KT 10SM FEW085 14/01 A3001 RMK AO2 SLP169 T01440011
20:53
V
16 °C 10 mi - 180° 180° 9 - 18 kt METAR KBLI 140353Z 18009G18KT 10SM CLR 16/03 A2999 RMK AO2 SLP163 T01560033
19:53
V
16 °C 10 mi - 180° 180° 9 - 19 kt METAR KBLI 140253Z 18009G19KT 10SM CLR 16/07 A2999 RMK AO2 SLP163 T01610067 58007
18:53
V
17 °C 10 mi - 180° 180° 10 - 18 kt METAR KBLI 140153Z 18010G18KT 10SM CLR 17/08 A3000 RMK AO2 SLP166 T01670083
17:53
V
18 °C 10 mi - 190° 190° 6 kt METAR KBLI 140053Z 19006KT 10SM CLR 18/09 A3001 RMK AO2 SLP169 T01830094
16:53
V
18 °C 10 mi - 180° 180° 9 kt METAR KBLI 132353Z 18009KT 10SM CLR 18/10 A3001 RMK AO2 SLP170 T01830100 10200 20161 56012
15:53
V
19 °C 10 mi - 210° 210° 4 kt METAR KBLI 132253Z 21004KT 10SM CLR 19/04 A3002 RMK AO2 SLP172 T01890044
14:53
V
18 °C 10 mi - Var Var 5 kt METAR KBLI 132153Z VRB05KT 10SM CLR 18/07 A3003 RMK AO2 SLP176 T01830067
13:53
V
19 °C 10 mi - Var Var 4 kt METAR KBLI 132053Z VRB04KT 10SM CLR 19/07 A3005 RMK AO2 SLP182 T01890072 56012
12:53
V
18 °C 10 mi - 290° 290° 8 kt METAR KBLI 131953Z 29008KT 10SM CLR 18/08 A3006 RMK AO2 SLP186 T01780078
11:53
V
17 °C 10 mi - 290° 290° 8 kt METAR KBLI 131853Z 29008KT 10SM CLR 17/09 A3007 RMK AO2 SLP189 T01720089
10:53
V
17 °C 10 mi - Var Var 6 kt METAR KBLI 131753Z VRB06KT 10SM CLR 17/11 A3008 RMK AO2 SLP194 T01720106 10172 20056 58012
09:53
V
15 °C 10 mi - 300° 300° 4 kt METAR KBLI 131653Z 30004KT 10SM CLR 15/09 A3010 RMK AO2 SLP199 T01500089
07:53
V
12 °C 10 mi - 190° 190° 3 kt METAR KBLI 131453Z 19003KT 10SM CLR 12/09 A3012 RMK AO2 SLP206 T01170089 50001
06:53
V
11 °C 10 mi - 360° 360° 0 kt METAR KBLI 131353Z 00000KT 10SM CLR 11/08 A3012 RMK AO2 SLP206 T01060083
05:53
V
7 °C 10 mi - 360° 360° 0 kt METAR KBLI 131253Z AUTO 00000KT 10SM CLR 07/07 A3012 RMK AO2 SLP206 T00720072
04:53
V
6 °C 5 mi - 360° 360° 0 kt METAR KBLI 131153Z AUTO 00000KT 5SM BR CLR 06/06 A3011 RMK AO2 SLP205 70004 T00610061 10106 20061 56006
03:53
V
7 °C 10 mi - 360° 360° 0 kt METAR KBLI 131053Z AUTO 00000KT 10SM CLR 07/07 A3012 RMK AO2 SLP206 T00720072
02:53
V
8 °C 10 mi - 360° 360° 0 kt METAR KBLI 130953Z AUTO 00000KT 10SM CLR 08/07 A3013 RMK AO2 SLP209 T00780072
01:53
V
8 °C 10 mi - 360° 360° 0 kt METAR KBLI 130853Z AUTO 00000KT 10SM CLR 08/08 A3013 RMK AO2 SLP211 T00830078 58011
00:53
V
9 °C 10 mi - 360° 360° 0 kt METAR KBLI 130753Z AUTO 00000KT 10SM CLR 09/08 A3015 RMK AO2 SLP217 T00890078 401780089

12 juin 2024

Temps Code Temps Temp. Vue Base cloud Vent METAR/SPECI
23:53
V
9 °C 10 mi - 360° 360° 0 kt METAR KBLI 130653Z AUTO 00000KT 10SM CLR 09/08 A3016 RMK AO2 SLP219 T00890078
22:53
V
9 °C 10 mi - 360° 360° 0 kt METAR KBLI 130553Z AUTO 00000KT 10SM CLR 09/08 A3016 RMK AO2 SLP222 T00940078 10178 20089 56005
21:53
V
11 °C 10 mi - 360° 360° 0 kt METAR KBLI 130453Z AUTO 00000KT 10SM CLR 11/09 A3017 RMK AO2 SLP223 T01110089
20:53
V
12 °C 10 mi - 360° 360° 0 kt METAR KBLI 130353Z AUTO 00000KT 10SM CLR 12/08 A3016 RMK AO2 SLP222 T01220078
19:53
V
16 °C 10 mi - 280° 280° 3 kt METAR KBLI 130253Z AUTO 28003KT 10SM CLR 16/05 A3018 RMK AO2 SLP226 T01610050 56012
18:53
V
17 °C 10 mi - Var Var 5 kt METAR KBLI 130153Z AUTO VRB05KT 10SM CLR 17/05 A3019 RMK AO2 SLP230 T01720050
17:53
V
17 °C 10 mi - 360° 360° 0 kt METAR KBLI 130053Z AUTO 10SM CLR 17/05 A3020 RMK AO2 SLP234 T01720050
16:53
V
18 °C 10 mi - 290° 290° 6 kt METAR KBLI 122353Z AUTO 29006KT 10SM CLR 18/05 A3022 RMK AO2 SLP239 T01780050 10178 20111 58011
15:53
V
17 °C 10 mi - 300° 300° 6 kt METAR KBLI 122253Z AUTO 30006KT 10SM CLR 17/05 A3023 RMK AO2 SLP242 T01720050
14:53
V
17 °C 10 mi - 300° 300° 5 kt METAR KBLI 122153Z 30005KT 10SM FEW027 17/08 A3024 RMK AO2 SLP247 T01670078
13:53
V
16 °C 10 mi - Var Var 5 kt METAR KBLI 122053Z VRB05KT 10SM SCT023 16/09 A3025 RMK AO2 SLP250 T01560094 56004
12:53
V
14 °C 10 mi - 170° 170° 6 kt METAR KBLI 121953Z 17006KT 10SM FEW020 FEW070 14/09 A3025 RMK AO2 SLP251 T01440089
11:53
M
13 °C 10 mi 3.000 ft 190° 190° 4 kt METAR KBLI 121853Z 19004KT 10SM BKN030 13/09 A3025 RMK AO2 SLP252 T01280094
11:00
M
12 °C 6 mi 1.500 ft 160° 160° 5 kt METAR KBLI 121800Z 16005KT 6SM BR SCT007 BKN015 OVC065 12/11 A3026 RMK AO2 T01170106
10:53
M
11 °C 5 mi 1.400 ft 360° 360° 0 kt METAR KBLI 121753Z 00000KT 5SM BR SCT005 BKN014 OVC040 11/10 A3026 RMK AO2 RAE1658 SLP254 P0000 60004 T01110100 10117 20100 53006
10:26
M
11 °C 5 mi 1.400 ft Var Var 4 kt METAR KBLI 121726Z VRB04KT 5SM BR SCT005 BKN014 OVC040 11/11 A3026 RMK AO2 RAE1658 P0000 T01060106
09:56
M
10 °C 7 mi 1.900 ft 190° 190° 5 kt METAR KBLI 121656Z 19005KT 7SM -RA FEW005 BKN019 OVC040 10/09 A3026 RMK AO2 P0000 T01000094
09:41
I
10 °C 2 mi 3.900 ft 180° 180° 6 kt METAR KBLI 121641Z 18006KT 2SM R16/5500VP6000FT -RA BR FEW017 BKN039 OVC050 10/09 A3025 RMK AO2 P0003 T01000094
08:53
M
11 °C 10 mi 2.300 ft 180° 180° 8 kt METAR KBLI 121553Z 18008KT 10SM -RA FEW010 BKN023 OVC060 11/09 A3024 RMK AO2 RAE1454B10 SLP248 P0000 T01060089
07:53
V
10 °C 7 mi 4.800 ft 180° 180° 5 kt METAR KBLI 121453Z 18005KT 7SM -RA SCT027 OVC048 10/09 A3023 RMK AO2 RAB22 SLP243 P0001 60001 T01000089 53015
07:30
M
11 °C 6 mi 2.800 ft 190° 190° 3 kt METAR KBLI 121430Z 19003KT 6SM -RA BR BKN028 BKN036 OVC055 11/08 A3022 RMK AO2 RAB22 P0000 T01060083
06:53
V
11 °C 10 mi 4.200 ft 170° 170° 4 kt METAR KBLI 121353Z 17004KT 10SM FEW028 BKN042 OVC050 11/08 A3020 RMK AO2 SLP234 T01060078
05:53
V
10 °C 10 mi 3.300 ft 170° 170° 5 kt METAR KBLI 121253Z AUTO 17005KT 10SM BKN033 OVC060 10/08 A3019 RMK AO2 SLP230 T01000078
04:53
V
10 °C 10 mi 3.800 ft 180° 180° 3 kt METAR KBLI 121153Z AUTO 18003KT 10SM BKN038 OVC045 10/08 A3018 RMK AO2 SLP228 70002 T01000078 10111 20089 53000
03:53
V
9 °C 10 mi 6.000 ft 160° 160° 3 kt METAR KBLI 121053Z AUTO 16003KT 10SM OVC060 09/08 A3018 RMK AO2 SLP227 T00940078
02:53
V
9 °C 10 mi 5.500 ft 180° 180° 4 kt METAR KBLI 120953Z AUTO 18004KT 10SM BKN055 09/07 A3018 RMK AO2 SLP228 T00890072
01:53
V
9 °C 10 mi - 180° 180° 3 kt METAR KBLI 120853Z AUTO 18003KT 10SM CLR 09/07 A3018 RMK AO2 SLP227 T00890072 51006
00:53
V
9 °C 10 mi - 160° 160° 5 kt METAR KBLI 120753Z AUTO 16005KT 10SM FEW050 09/07 A3018 RMK AO2 SLP227 T00940072 401780094

11 juin 2024

Temps Code Temps Temp. Vue Base cloud Vent METAR/SPECI
23:53
V
10 °C 10 mi - 170° 170° 6 kt METAR KBLI 120653Z AUTO 17006KT 10SM CLR 10/08 A3018 RMK AO2 SLP226 T01000078
22:53
V
11 °C 10 mi - 180° 180° 6 kt METAR KBLI 120553Z AUTO 18006KT 10SM CLR 11/07 A3016 RMK AO2 SLP221 T01110072 10161 20111 51012
21:53
V
12 °C 10 mi - 180° 180° 5 kt METAR KBLI 120453Z 18005KT 10SM FEW060 12/07 A3016 RMK AO2 SLP219 T01170067
20:53
V
13 °C 10 mi 5.500 ft 360° 360° 0 kt METAR KBLI 120353Z 00000KT 10SM FEW042 OVC055 13/05 A3014 RMK AO2 SLP213 T01330050
19:53
V
14 °C 10 mi 5.000 ft Var Var 4 kt METAR KBLI 120253Z VRB04KT 10SM OVC050 14/04 A3013 RMK AO2 SLP209 T01390044 53013
18:53
V
14 °C 10 mi 4.900 ft 210° 210° 12 kt METAR KBLI 120153Z 21012KT 10SM OVC049 14/06 A3011 RMK AO2 SLP204 T01390056
Signaler les modifications